Raynham, Massachusetts
Current Conditions -  °F | °C
As of 1:52 AM on Saturday 25 Oct 2014 (Local Time) from KTAN Reporting Station
Scattered Clouds Scattered Clouds  
Wind Chill: 44°   Ceiling: Unl
Heat Index: 44°   Visibility: 10mi
Dew Point: 41°   Wind: 3mph
Humidity: 89%   Direction: 270°W
Pressure: 29.76"   Gusts: NA
Location:  41.95°N, 71.07°W
Report Text: KTAN 250552Z AUTO 27003KT 10SM SCT028 07/05 A2976 RMK AO2 SLP076 T00670050 10111 20067 51005
Loading
Personal Weather Stations






























Interactive Weather Map
Tropical Storm Tracking
New forecast layout! Learn more

10-Day Weather Forecast

Advertisements
Track Severe Weather on mobile